createdAt,value
2018-04-27T00:01:02.767Z,56.40
2018-04-27T00:03:30.212Z,57.40
2018-04-27T00:05:57.652Z,57.50
2018-04-27T00:08:25.120Z,56.60
2018-04-27T00:10:52.560Z,56.30
2018-04-27T00:13:20.021Z,56.70
2018-04-27T00:15:47.556Z,57.70
2018-04-27T00:18:15.047Z,57.20
2018-04-27T00:20:42.485Z,57.30
2018-04-27T00:23:09.932Z,57.50
2018-04-27T00:25:37.381Z,58.00
2018-04-27T00:28:04.840Z,58.40
2018-04-27T00:30:32.317Z,58.80
2018-04-27T00:33:00.535Z,58.60
2018-04-27T00:35:27.984Z,58.40
2018-04-27T00:37:56.202Z,58.50
2018-04-27T00:40:23.652Z,58.50
2018-04-27T00:42:51.112Z,58.40
2018-04-27T00:45:19.337Z,58.50
2018-04-27T00:47:46.812Z,58.60
2018-04-27T00:50:14.268Z,58.70
2018-04-27T00:52:53.524Z,58.50
2018-04-27T00:55:20.980Z,58.60
2018-04-27T00:57:48.430Z,58.70
2018-04-27T01:00:15.879Z,58.90
2018-04-27T01:02:44.103Z,58.90
2018-04-27T01:05:11.559Z,58.70
2018-04-27T01:07:38.999Z,58.60
2018-04-27T01:10:07.221Z,59.40
2018-04-27T01:12:34.672Z,59.30
2018-04-27T01:15:02.892Z,59.50
2018-04-27T01:17:30.349Z,59.40
2018-04-27T01:19:57.788Z,59.50
2018-04-27T01:22:26.005Z,58.80
2018-04-27T01:24:53.453Z,58.80
2018-04-27T01:27:21.661Z,59.40
2018-04-27T01:29:49.139Z,59.30
2018-04-27T01:32:16.592Z,59.60
2018-04-27T01:34:44.044Z,59.50
2018-04-27T01:37:12.257Z,59.70
2018-04-27T01:39:39.721Z,59.80
2018-04-27T01:42:07.172Z,59.90
2018-04-27T01:44:34.621Z,60.00
2018-04-27T01:47:02.084Z,59.70
2018-04-27T01:49:29.548Z,60.00
2018-04-27T01:51:58.676Z,59.50
2018-04-27T01:54:26.897Z,59.30
2018-04-27T01:56:54.339Z,59.40
2018-04-27T01:59:22.570Z,59.20
2018-04-27T02:01:50.011Z,59.20
2018-04-27T02:04:17.473Z,59.40
2018-04-27T02:06:44.929Z,59.50
2018-04-27T02:09:13.152Z,59.40
2018-04-27T02:11:40.609Z,59.30
2018-04-27T02:14:08.065Z,59.50
2018-04-27T02:16:35.517Z,59.40
2018-04-27T02:19:03.735Z,59.50
2018-04-27T02:21:31.206Z,59.50
2018-04-27T02:23:58.666Z,59.60
2018-04-27T02:26:26.114Z,59.70
2018-04-27T02:28:54.338Z,60.50
2018-04-27T02:31:21.790Z,60.40
2018-04-27T02:33:49.231Z,60.60
2018-04-27T02:36:17.440Z,61.10
2018-04-27T02:38:44.895Z,61.00
2018-04-27T02:41:13.109Z,61.20
2018-04-27T02:43:40.566Z,61.10
2018-04-27T02:46:08.007Z,61.30
2018-04-27T02:48:36.249Z,61.80
2018-04-27T02:51:03.679Z,61.80
2018-04-27T02:53:31.129Z,61.70
2018-04-27T02:55:59.356Z,61.90
2018-04-27T02:58:26.800Z,61.90
2018-04-27T03:00:55.015Z,60.50
2018-04-27T03:03:22.554Z,60.40
2018-04-27T03:05:50.777Z,61.70
2018-04-27T03:08:18.220Z,61.60
2018-04-27T03:10:45.671Z,61.70
2018-04-27T03:13:13.896Z,62.30
2018-04-27T03:15:41.354Z,62.20
2018-04-27T03:18:08.796Z,62.40
2018-04-27T03:20:37.011Z,62.70
2018-04-27T03:23:04.461Z,62.60
2018-04-27T03:25:32.761Z,62.30
2018-04-27T03:28:00.204Z,62.20
2018-04-27T03:30:28.431Z,62.60
2018-04-27T03:32:55.973Z,62.60
2018-04-27T03:35:24.204Z,62.80
2018-04-27T03:37:51.666Z,62.70
2018-04-27T03:40:19.129Z,62.80
2018-04-27T03:42:46.577Z,62.80
2018-04-27T03:45:14.044Z,62.60
2018-04-27T03:47:41.706Z,62.00
2018-04-27T03:50:09.933Z,62.00
2018-04-27T03:52:37.388Z,62.00
2018-04-27T03:55:04.847Z,62.30
2018-04-27T03:57:32.306Z,62.20
2018-04-27T04:00:12.417Z,62.00
2018-04-27T04:02:51.801Z,61.90
2018-04-27T04:05:29.113Z,61.90
2018-04-27T04:07:57.330Z,63.20
2018-04-27T04:10:24.798Z,63.20
2018-04-27T04:12:52.252Z,63.40
2018-04-27T04:15:19.742Z,63.20
2018-04-27T04:17:47.200Z,63.60
2018-04-27T04:20:14.660Z,64.00
2018-04-27T04:22:42.108Z,64.30
2018-04-27T04:25:10.327Z,65.30
2018-04-27T04:27:37.781Z,65.30
2018-04-27T04:30:05.241Z,65.60
2018-04-27T04:32:33.457Z,65.40
2018-04-27T04:35:00.916Z,65.40
2018-04-27T04:37:28.369Z,65.30
2018-04-27T04:39:55.833Z,65.70
2018-04-27T04:42:24.045Z,66.20
2018-04-27T04:44:51.506Z,66.00
2018-04-27T04:47:18.995Z,66.40
2018-04-27T04:49:46.450Z,66.60
2018-04-27T04:52:13.893Z,66.60
2018-04-27T04:54:42.121Z,66.80
2018-04-27T04:57:09.598Z,66.80
2018-04-27T04:59:37.060Z,66.60
2018-04-27T05:02:04.509Z,66.90
2018-04-27T05:04:31.968Z,66.90
2018-04-27T05:06:59.430Z,66.90
2018-04-27T05:09:27.655Z,66.40
2018-04-27T05:11:55.097Z,66.30
2018-04-27T05:14:22.561Z,66.30
2018-04-27T05:16:50.778Z,67.00
2018-04-27T05:19:18.246Z,67.00
2018-04-27T05:21:45.700Z,66.60
2018-04-27T05:24:13.224Z,67.00
2018-04-27T05:26:40.636Z,67.70
2018-04-27T05:29:08.080Z,68.90
2018-04-27T05:31:36.309Z,68.70
2018-04-27T05:34:03.757Z,68.60
2018-04-27T05:36:31.237Z,68.30
2018-04-27T05:38:58.689Z,68.70
2018-04-27T05:41:26.151Z,68.70
2018-04-27T05:43:54.374Z,69.20
2018-04-27T05:46:21.845Z,69.20
2018-04-27T05:48:49.299Z,69.10
2018-04-27T05:51:16.760Z,68.60
2018-04-27T05:53:44.217Z,68.40
2018-04-27T05:56:11.694Z,68.60
2018-04-27T05:58:39.146Z,68.10
2018-04-27T06:01:07.411Z,67.80
2018-04-27T06:03:46.780Z,67.80
2018-04-27T06:06:15.033Z,67.10
2018-04-27T06:08:42.494Z,67.10
2018-04-27T06:11:09.964Z,65.70
2018-04-27T06:13:37.422Z,64.60
2018-04-27T06:16:04.981Z,63.50
2018-04-27T06:18:32.350Z,64.20
2018-04-27T06:20:59.818Z,65.30
2018-04-27T06:23:27.273Z,65.30
2018-04-27T06:25:54.753Z,65.40
2018-04-27T06:28:22.202Z,65.20
2018-04-27T06:30:49.675Z,65.70
2018-04-27T06:33:17.133Z,65.50
2018-04-27T06:35:44.602Z,65.40
2018-04-27T06:38:12.832Z,64.10
2018-04-27T06:40:40.293Z,64.10
2018-04-27T06:43:07.850Z,64.60
2018-04-27T06:45:35.307Z,62.80
2018-04-27T06:48:02.831Z,63.20
2018-04-27T06:50:30.295Z,63.70
2018-04-27T06:52:57.753Z,62.80
2018-04-27T06:55:25.225Z,62.20
2018-04-27T06:57:52.689Z,62.70
2018-04-27T07:00:20.209Z,60.90
2018-04-27T07:02:48.429Z,59.60
2018-04-27T07:05:15.978Z,60.00
2018-04-27T07:07:43.502Z,61.60
2018-04-27T07:10:10.966Z,61.80
2018-04-27T07:12:38.438Z,61.10
2018-04-27T07:15:05.887Z,61.60
2018-04-27T07:17:33.348Z,61.50
2018-04-27T07:20:00.807Z,61.40
2018-04-27T07:22:28.273Z,61.20
2018-04-27T07:24:55.735Z,62.50
2018-04-27T07:27:23.201Z,62.60
2018-04-27T07:29:51.422Z,60.90
2018-04-27T07:32:18.984Z,60.80
2018-04-27T07:34:46.432Z,62.30
2018-04-27T07:37:13.912Z,61.90
2018-04-27T07:39:41.409Z,61.60
2018-04-27T07:42:08.845Z,61.40
2018-04-27T07:44:36.298Z,59.10
2018-04-27T07:47:04.524Z,60.70
2018-04-27T07:49:31.985Z,60.60
2018-04-27T07:51:59.457Z,59.90
2018-04-27T07:54:26.919Z,59.40
2018-04-27T07:56:54.407Z,59.10
2018-04-27T07:59:21.850Z,57.90
2018-04-27T08:01:49.327Z,57.50
2018-04-27T08:04:16.776Z,56.00
2018-04-27T08:06:45.010Z,56.10
2018-04-27T08:09:12.456Z,56.10
2018-04-27T08:11:39.932Z,57.00
2018-04-27T08:14:07.386Z,54.30
2018-04-27T08:16:34.848Z,52.50
2018-04-27T08:19:02.307Z,55.60
2018-04-27T08:21:30.529Z,54.90
2018-04-27T08:23:57.987Z,54.80
2018-04-27T08:26:26.238Z,56.00
2018-04-27T08:28:53.696Z,54.70
2018-04-27T08:31:21.162Z,53.40
2018-04-27T08:33:48.610Z,56.10
2018-04-27T08:36:16.174Z,55.40
2018-04-27T08:38:43.528Z,52.90
2018-04-27T08:41:10.993Z,54.50
2018-04-27T08:43:38.462Z,54.20
2018-04-27T08:46:05.934Z,53.30
2018-04-27T08:48:33.381Z,53.40
2018-04-27T08:51:00.845Z,52.30
2018-04-27T08:53:29.066Z,51.70
2018-04-27T08:55:56.533Z,51.70
2018-04-27T08:58:24.027Z,50.70
2018-04-27T09:00:51.497Z,51.00
2018-04-27T09:03:18.941Z,49.40
2018-04-27T09:05:46.418Z,50.20
2018-04-27T09:08:13.864Z,48.00
2018-04-27T09:10:41.311Z,48.60
2018-04-27T09:13:09.549Z,50.30
2018-04-27T09:15:37.002Z,50.30
2018-04-27T09:18:04.470Z,49.00
2018-04-27T09:20:31.929Z,49.10
2018-04-27T09:22:59.393Z,48.30
2018-04-27T09:25:26.850Z,49.50
2018-04-27T09:27:54.318Z,48.70
2018-04-27T09:30:22.537Z,50.20
2018-04-27T09:32:50.022Z,50.10
2018-04-27T09:35:17.487Z,48.10
2018-04-27T09:37:44.941Z,45.70
2018-04-27T09:40:12.391Z,43.60
2018-04-27T09:42:39.969Z,43.60
2018-04-27T09:45:07.430Z,43.70
2018-04-27T09:47:34.892Z,43.40
2018-04-27T09:50:03.114Z,44.20
2018-04-27T09:52:30.578Z,44.20
2018-04-27T09:54:58.030Z,40.50
2018-04-27T09:57:25.537Z,40.00
2018-04-27T09:59:52.950Z,40.20
2018-04-27T10:02:21.173Z,37.40
2018-04-27T10:04:48.622Z,37.40
2018-04-27T10:07:16.102Z,35.50
2018-04-27T10:09:43.553Z,34.30
2018-04-27T10:12:11.000Z,33.20
2018-04-27T10:14:39.228Z,31.30
2018-04-27T10:17:06.694Z,31.30
2018-04-27T10:19:41.707Z,33.00
2018-04-27T10:22:09.922Z,31.20
2018-04-27T10:24:37.381Z,31.20
2018-04-27T10:27:04.828Z,34.00
2018-04-27T10:29:33.062Z,32.50
2018-04-27T10:32:00.514Z,32.50
2018-04-27T10:34:27.975Z,30.90
2018-04-27T10:36:55.433Z,30.40
2018-04-27T10:39:23.652Z,32.60
2018-04-27T10:41:51.111Z,32.50
2018-04-27T10:44:18.580Z,30.10
2018-04-27T10:46:46.026Z,30.40
2018-04-27T10:49:13.489Z,34.50
2018-04-27T10:51:41.715Z,30.60
2018-04-27T10:54:09.218Z,30.60
2018-04-27T10:56:36.648Z,29.50
2018-04-27T10:59:04.101Z,31.90
2018-04-27T11:01:31.561Z,35.10
2018-04-27T11:03:59.013Z,32.30
2018-04-27T11:06:27.246Z,32.20
2018-04-27T11:08:54.707Z,32.20
2018-04-27T11:11:22.169Z,30.00
2018-04-27T11:13:49.633Z,30.40
2018-04-27T11:16:17.194Z,30.50
2018-04-27T11:18:45.308Z,28.30
2018-04-27T11:21:12.774Z,28.40
2018-04-27T11:23:40.225Z,29.50
2018-04-27T11:26:07.745Z,30.00
2018-04-27T11:28:35.233Z,29.50
2018-04-27T11:31:03.458Z,29.10
2018-04-27T11:33:30.904Z,29.10
2018-04-27T11:35:59.125Z,30.00
2018-04-27T11:38:26.580Z,30.00
2018-04-27T11:40:54.052Z,29.60
2018-04-27T11:43:21.501Z,30.70
2018-04-27T11:45:49.721Z,32.00
2018-04-27T11:48:17.187Z,31.90
2018-04-27T11:50:44.638Z,30.60
2018-04-27T11:53:12.114Z,31.30
2018-04-27T11:55:39.548Z,31.50
2018-04-27T11:58:07.782Z,29.80
2018-04-27T12:00:35.233Z,29.70
2018-04-27T12:03:02.697Z,31.60
2018-04-27T12:05:30.154Z,31.50
2018-04-27T12:07:58.378Z,30.80
2018-04-27T12:10:25.827Z,30.70
2018-04-27T12:12:53.282Z,31.70
2018-04-27T12:15:21.610Z,32.30
2018-04-27T12:17:49.069Z,32.30
2018-04-27T12:20:16.527Z,31.30
2018-04-27T12:22:43.980Z,32.70
2018-04-27T12:25:12.200Z,29.70
2018-04-27T12:27:39.657Z,29.60
2018-04-27T12:30:07.108Z,32.30
2018-04-27T12:32:35.329Z,32.10
2018-04-27T12:35:02.781Z,32.10
2018-04-27T12:37:30.244Z,31.80
2018-04-27T12:39:57.688Z,28.60
2018-04-27T12:42:25.922Z,29.70
2018-04-27T12:44:53.377Z,29.70
2018-04-27T12:47:20.838Z,29.80
2018-04-27T12:49:48.290Z,29.40
2018-04-27T12:52:16.632Z,28.30
2018-04-27T12:54:43.987Z,28.30
2018-04-27T12:57:11.442Z,31.60
2018-04-27T12:59:38.897Z,29.70
2018-04-27T13:02:06.353Z,28.10
2018-04-27T13:04:34.601Z,29.10
2018-04-27T13:07:02.068Z,29.00
2018-04-27T13:09:29.516Z,30.10
2018-04-27T13:11:56.969Z,28.90
2018-04-27T13:14:24.426Z,28.30
2018-04-27T13:16:51.889Z,28.00
2018-04-27T13:19:20.103Z,28.80
2018-04-27T13:21:47.561Z,28.80
2018-04-27T13:24:15.777Z,30.40
2018-04-27T13:26:43.238Z,30.40
2018-04-27T13:29:10.710Z,30.80
2018-04-27T13:31:38.181Z,29.80
2018-04-27T13:34:05.742Z,28.50
2018-04-27T13:36:33.201Z,29.70
2018-04-27T13:39:00.661Z,27.90
2018-04-27T13:41:28.112Z,29.20
2018-04-27T13:43:56.342Z,30.20
2018-04-27T13:46:23.799Z,30.10
2018-04-27T13:48:51.267Z,28.80
2018-04-27T13:51:18.737Z,29.10
2018-04-27T13:53:46.209Z,28.70
2018-04-27T13:56:13.658Z,28.80
2018-04-27T13:58:41.117Z,30.70
2018-04-27T14:01:08.577Z,31.80
2018-04-27T14:03:36.806Z,31.40
2018-04-27T14:06:04.258Z,32.00
2018-04-27T14:08:31.726Z,30.10
2018-04-27T14:10:59.187Z,29.80
2018-04-27T14:13:26.657Z,30.80
2018-04-27T14:15:54.869Z,32.60
2018-04-27T14:18:22.334Z,32.60
2018-04-27T14:20:49.785Z,30.60
2018-04-27T14:23:17.254Z,30.60
2018-04-27T14:25:44.706Z,29.80
2018-04-27T14:28:12.938Z,30.50
2018-04-27T14:30:40.402Z,30.40
2018-04-27T14:33:07.849Z,31.90
2018-04-27T14:35:35.306Z,31.70
2018-04-27T14:38:02.760Z,29.00
2018-04-27T14:40:30.974Z,31.20
2018-04-27T14:42:58.449Z,31.20
2018-04-27T14:45:25.897Z,31.80
2018-04-27T14:47:54.123Z,29.90
2018-04-27T14:50:21.579Z,29.90
2018-04-27T14:52:49.046Z,29.80
2018-04-27T14:55:16.500Z,32.60
2018-04-27T14:57:43.962Z,33.90
2018-04-27T15:00:11.410Z,32.30
2018-04-27T15:02:39.633Z,31.80
2018-04-27T15:05:07.105Z,31.70
2018-04-27T15:07:34.565Z,31.20
2018-04-27T15:10:02.027Z,31.80
2018-04-27T15:12:29.492Z,32.60
2018-04-27T15:14:57.710Z,33.00
2018-04-27T15:17:25.178Z,33.00
2018-04-27T15:19:52.633Z,33.30
2018-04-27T15:22:20.106Z,33.50
2018-04-27T15:24:47.553Z,33.90
2018-04-27T15:27:15.006Z,32.30
2018-04-27T15:29:43.230Z,34.90
2018-04-27T15:32:10.709Z,34.90
2018-04-27T15:34:38.174Z,33.20
2018-04-27T15:37:06.614Z,34.00
2018-04-27T15:39:34.074Z,33.60
2018-04-27T15:42:01.570Z,34.20
2018-04-27T15:44:29.814Z,35.00
2018-04-27T15:46:57.265Z,35.00
2018-04-27T15:49:24.790Z,35.30
2018-04-27T15:51:53.179Z,34.10
2018-04-27T15:54:21.570Z,34.20
2018-04-27T15:56:49.785Z,33.20
2018-04-27T15:59:17.273Z,33.10
2018-04-27T16:01:44.762Z,33.70
2018-04-27T16:04:12.229Z,35.00
2018-04-27T16:06:39.686Z,33.80
2018-04-27T16:09:07.176Z,35.40
2018-04-27T16:11:34.625Z,35.40
2018-04-27T16:14:02.151Z,34.60
2018-04-27T16:16:30.462Z,34.70
2018-04-27T16:19:02.593Z,35.60
2018-04-27T16:21:30.047Z,35.60
2018-04-27T16:23:58.422Z,34.50
2018-04-27T16:26:26.814Z,34.40
2018-04-27T16:28:54.278Z,34.60
2018-04-27T16:31:21.758Z,36.40
2018-04-27T16:33:50.798Z,35.90
2018-04-27T16:36:19.758Z,33.70
2018-04-27T16:38:47.233Z,34.30
2018-04-27T16:41:16.251Z,33.80
2018-04-27T16:43:43.710Z,34.90
2018-04-27T16:46:11.173Z,35.80
2018-04-27T16:48:38.641Z,36.70
2018-04-27T16:51:06.152Z,35.70
2018-04-27T16:53:33.555Z,36.00
2018-04-27T16:56:01.001Z,35.40
2018-04-27T16:58:29.294Z,36.60
2018-04-27T17:00:57.506Z,34.80
2018-04-27T17:03:24.969Z,34.80
2018-04-27T17:05:52.418Z,35.00
2018-04-27T17:08:20.646Z,35.00
2018-04-27T17:10:48.097Z,35.00
2018-04-27T17:13:15.598Z,36.40
2018-04-27T17:15:43.049Z,35.70
2018-04-27T17:18:10.522Z,35.60
2018-04-27T17:20:37.967Z,35.40
2018-04-27T17:23:05.438Z,36.40
2018-04-27T17:25:32.890Z,36.50
2018-04-27T17:28:01.113Z,37.00
2018-04-27T17:30:28.574Z,37.00
2018-04-27T17:32:56.033Z,37.00
2018-04-27T17:35:23.516Z,36.40
2018-04-27T17:37:50.973Z,36.90
2018-04-27T17:40:18.603Z,37.50
2018-04-27T17:42:46.098Z,37.90
2018-04-27T17:45:13.567Z,37.60
2018-04-27T17:47:41.786Z,38.00
2018-04-27T17:50:09.245Z,38.00
2018-04-27T17:52:36.700Z,38.90
2018-04-27T17:55:04.161Z,39.40
2018-04-27T17:57:31.685Z,40.00
2018-04-27T17:59:59.875Z,41.30
2018-04-27T18:02:27.314Z,41.20
2018-04-27T18:04:54.778Z,40.90
2018-04-27T18:07:22.231Z,41.10
2018-04-27T18:09:49.713Z,41.00
2018-04-27T18:12:17.213Z,41.80
2018-04-27T18:14:44.624Z,41.60
2018-04-27T18:17:12.981Z,42.20
2018-04-27T18:19:40.437Z,42.10
2018-04-27T18:22:07.885Z,42.20
2018-04-27T18:24:35.358Z,42.00
2018-04-27T18:27:02.856Z,42.40
2018-04-27T18:29:30.326Z,42.50
2018-04-27T18:31:57.772Z,42.70
2018-04-27T18:34:25.257Z,42.00
2018-04-27T18:36:52.717Z,42.00
2018-04-27T18:39:20.290Z,42.20
2018-04-27T18:41:47.729Z,42.20
2018-04-27T18:44:15.169Z,42.80
2018-04-27T18:46:43.384Z,43.40
2018-04-27T18:49:10.855Z,43.30
2018-04-27T18:51:38.311Z,43.50
2018-04-27T18:54:05.814Z,44.10
2018-04-27T18:56:33.395Z,44.10
2018-04-27T18:59:00.849Z,44.10
2018-04-27T19:01:29.302Z,44.60
2018-04-27T19:03:57.515Z,46.20
2018-04-27T19:06:25.761Z,46.10
2018-04-27T19:08:54.991Z,46.90
2018-04-27T19:11:22.364Z,46.20
2018-04-27T19:13:49.826Z,46.10
2018-04-27T19:16:18.050Z,46.30
2018-04-27T19:18:45.513Z,46.30
2018-04-27T19:21:23.229Z,46.40
2018-04-27T19:23:50.701Z,46.20
2018-04-27T19:26:18.144Z,46.80
2018-04-27T19:28:45.616Z,47.70
2018-04-27T19:31:13.830Z,47.10
2018-04-27T19:33:41.322Z,47.10
2018-04-27T19:36:08.789Z,47.90
2018-04-27T19:38:36.258Z,46.90
2018-04-27T19:41:03.709Z,46.30
2018-04-27T19:43:31.230Z,46.00
2018-04-27T19:45:59.436Z,46.20
2018-04-27T19:48:26.901Z,46.10
2018-04-27T19:50:54.370Z,45.80
2018-04-27T19:53:21.817Z,45.70
2018-04-27T19:55:50.040Z,46.70
2018-04-27T19:58:17.493Z,46.70
2018-04-27T20:00:44.962Z,46.40
2018-04-27T20:03:12.426Z,46.50
2018-04-27T20:05:41.689Z,46.70
2018-04-27T20:08:09.134Z,46.40
2018-04-27T20:10:37.540Z,46.80
2018-04-27T20:13:04.954Z,47.30
2018-04-27T20:15:37.001Z,47.50
2018-04-27T20:18:17.178Z,47.50
2018-04-27T20:20:44.585Z,47.60
2018-04-27T20:23:13.677Z,47.40
2018-04-27T20:25:41.916Z,48.30
2018-04-27T20:28:09.378Z,48.10
2018-04-27T20:30:36.838Z,48.60
2018-04-27T20:33:14.033Z,48.40
2018-04-27T20:35:41.501Z,48.60
2018-04-27T20:38:19.369Z,48.60
2018-04-27T20:40:47.597Z,48.30
2018-04-27T20:43:15.894Z,48.20
2018-04-27T20:45:43.352Z,48.70
2018-04-27T20:48:11.715Z,49.00
2018-04-27T20:53:21.797Z,47.90
2018-04-27T20:55:52.841Z,48.60
2018-04-27T20:58:20.312Z,47.70
2018-04-27T21:00:47.770Z,47.20
2018-04-27T21:03:15.227Z,47.50
2018-04-27T21:05:42.715Z,46.70
2018-04-27T21:08:10.180Z,46.90
2018-04-27T21:10:37.679Z,46.70
2018-04-27T21:13:05.143Z,46.60
2018-04-27T21:15:32.736Z,46.60
2018-04-27T21:18:00.319Z,46.40
2018-04-27T21:20:28.869Z,46.00
2018-04-27T21:22:57.123Z,46.10
2018-04-27T21:25:33.530Z,46.40
2018-04-27T21:28:01.027Z,46.30
2018-04-27T21:30:28.516Z,45.90
2018-04-27T21:33:07.035Z,45.90
2018-04-27T21:35:49.625Z,46.00
2018-04-27T21:38:33.523Z,46.20
2018-04-27T21:41:01.009Z,46.30
2018-04-27T21:43:28.458Z,46.20
2018-04-27T21:45:55.938Z,46.20
2018-04-27T21:48:24.860Z,46.50
2018-04-27T21:50:52.327Z,46.50
2018-04-27T21:53:19.786Z,46.50
2018-04-27T21:55:47.295Z,46.40
2018-04-27T21:58:21.583Z,47.00
2018-04-27T22:00:49.061Z,47.00
2018-04-27T22:03:16.529Z,47.00
2018-04-27T22:05:46.717Z,47.30
2018-04-27T22:11:25.887Z,46.90
2018-04-27T22:13:54.196Z,47.40
2018-04-27T22:16:35.035Z,47.20
2018-04-27T22:19:02.488Z,47.20
2018-04-27T22:21:29.974Z,47.40
2018-04-27T22:24:17.230Z,47.70
2018-04-27T22:26:45.473Z,48.00
2018-04-27T22:29:31.673Z,47.90
2018-04-27T22:31:59.949Z,48.10
2018-04-27T22:34:30.038Z,47.50
2018-04-27T22:36:57.497Z,47.90
2018-04-27T22:39:43.562Z,47.40
2018-04-27T22:42:11.946Z,48.70
2018-04-27T22:44:54.141Z,48.30
2018-04-27T22:47:31.965Z,48.10
2018-04-27T22:49:59.421Z,48.10
2018-04-27T22:52:32.566Z,48.90
2018-04-27T22:55:00.010Z,48.70
2018-04-27T22:57:35.177Z,48.80
2018-04-27T23:00:08.105Z,49.10
2018-04-27T23:02:35.564Z,48.90
2018-04-27T23:05:10.849Z,48.80
2018-04-27T23:07:41.136Z,48.90
2018-04-27T23:10:08.671Z,48.90
2018-04-27T23:12:38.726Z,48.80
2018-04-27T23:15:08.730Z,48.70
2018-04-27T23:17:37.012Z,49.20
2018-04-27T23:20:19.448Z,49.30
2018-04-27T23:22:46.943Z,49.20
2018-04-27T23:25:16.504Z,49.10
2018-04-27T23:27:44.746Z,49.60
2018-04-27T23:30:12.209Z,50.20
2018-04-27T23:32:40.567Z,49.60
2018-04-27T23:35:08.773Z,49.40
2018-04-27T23:37:36.255Z,49.30
2018-04-27T23:40:03.697Z,49.70
2018-04-27T23:42:31.166Z,49.70
2018-04-27T23:44:58.617Z,50.40
2018-04-27T23:47:26.881Z,49.70
2018-04-27T23:49:55.106Z,49.50
2018-04-27T23:52:23.326Z,49.80
2018-04-27T23:54:50.782Z,49.70
2018-04-27T23:57:21.133Z,50.50
2018-04-27T23:59:48.590Z,51.00
